Time;durP1;ratioP1;P1;durP2;ratioP2;P2;SDS_P1;SDS_P2;PMS_P1;PMS_P2;Temp;Humidity;BMP_temperature;BMP_pressure;BME280_temperature;BME280_humidity;BME280_pressure;Samples;Min_cycle;Max_cycle;Signal;HPM_P1;HPM_P2
2022/10/19 00:02:18;;;;;;;2.40;2.30;;;20.80;73.20;;;;;;5008922;28;43437;-72
2022/10/19 00:04:46;;;;;;;1.73;1.73;;;20.80;72.90;;;;;;5015237;28;43644;-71
2022/10/19 00:07:14;;;;;;;2.10;2.10;;;20.80;73.00;;;;;;5012711;28;44039;-70
2022/10/19 00:09:43;;;;;;;2.43;2.33;;;20.80;73.20;;;;;;5017471;28;43448;-70
2022/10/19 00:12:11;;;;;;;2.17;2.17;;;20.80;73.20;;;;;;5011353;28;43372;-70
2022/10/19 00:14:41;;;;;;;2.63;2.43;;;20.80;73.20;;;;;;5009818;28;45618;-71
2022/10/19 00:17:08;;;;;;;2.00;2.00;;;20.70;73.30;;;;;;5008792;28;43436;-71
2022/10/19 00:19:36;;;;;;;2.20;2.10;;;20.60;73.40;;;;;;5015296;28;43473;-71
2022/10/19 00:22:04;;;;;;;2.30;2.20;;;20.60;73.80;;;;;;5008593;28;44168;-70
2022/10/19 00:24:35;;;;;;;2.23;2.13;;;20.60;73.70;;;;;;5007373;28;43619;-72
2022/10/19 00:27:05;;;;;;;1.90;1.83;;;20.60;73.70;;;;;;5008067;28;43443;-71
2022/10/19 00:29:33;;;;;;;2.13;2.03;;;20.60;73.80;;;;;;5007868;28;43392;-71
2022/10/19 00:32:02;;;;;;;2.53;2.43;;;20.50;73.80;;;;;;5015100;28;43357;-71
2022/10/19 00:34:30;;;;;;;2.57;2.47;;;20.50;74.30;;;;;;5011668;28;43857;-70
2022/10/19 00:36:58;;;;;;;2.40;2.30;;;20.60;74.20;;;;;;5010801;28;44547;-70
2022/10/19 00:39:25;;;;;;;2.50;2.40;;;20.70;73.80;;;;;;5014258;28;43453;-71
2022/10/19 00:41:53;;;;;;;2.40;2.30;;;20.90;73.30;;;;;;5017390;28;43634;-71
2022/10/19 00:44:59;;;;;;;1.90;1.90;;;20.90;72.80;;;;;;5008647;28;43836;-71
2022/10/19 00:47:29;;;;;;;2.30;2.20;;;21.00;72.70;;;;;;5015413;28;43530;-71
2022/10/19 00:49:57;;;;;;;1.90;1.90;;;20.90;72.70;;;;;;5010187;28;43533;-72
2022/10/19 00:52:24;;;;;;;2.20;2.20;;;20.80;72.90;;;;;;5012424;28;43420;-71
2022/10/19 00:54:53;;;;;;;2.27;2.17;;;20.70;73.20;;;;;;5012604;28;43590;-69
2022/10/19 00:57:21;;;;;;;2.43;2.33;;;20.70;73.70;;;;;;5016055;28;43393;-69
2022/10/19 00:59:48;;;;;;;2.50;2.40;;;20.70;73.70;;;;;;5020375;28;43965;-71
2022/10/19 01:02:16;;;;;;;2.40;2.30;;;20.60;73.60;;;;;;5009456;28;43551;-71
2022/10/19 01:04:47;;;;;;;1.73;1.73;;;20.60;73.70;;;;;;5012755;28;43929;-73
2022/10/19 01:07:15;;;;;;;2.57;2.47;;;20.60;73.90;;;;;;5008652;28;43423;-71
2022/10/19 01:09:43;;;;;;;2.10;2.10;;;20.50;74.10;;;;;;5015019;28;43446;-72
2022/10/19 01:12:17;;;;;;;2.00;2.00;;;20.50;74.00;;;;;;5009626;28;43527;-71
2022/10/19 01:14:53;;;;;;;2.30;2.20;;;20.50;73.90;;;;;;5014812;28;43894;-72
2022/10/19 01:17:24;;;;;;;2.37;2.27;;;20.50;73.90;;;;;;5011163;28;45734;-72
2022/10/19 01:20:14;;;;;;;2.50;2.40;;;20.50;74.20;;;;;;5012064;28;43382;-72
2022/10/19 01:22:50;;;;;;;2.60;2.50;;;20.50;74.50;;;;;;5021670;28;43541;-72
2022/10/19 01:25:21;;;;;;;2.07;2.07;;;20.60;74.10;;;;;;5013087;28;43748;-73
2022/10/19 01:27:57;;;;;;;2.20;2.20;;;20.70;73.50;;;;;;5011420;28;43412;-71
2022/10/19 01:30:32;;;;;;;2.37;2.33;;;20.90;73.70;;;;;;5019420;28;43395;-71
2022/10/19 01:33:04;;;;;;;2.43;2.33;;;21.00;72.60;;;;;;5015122;28;43450;-71
2022/10/19 01:35:35;;;;;;;2.33;2.23;;;21.00;72.60;;;;;;5010392;28;43904;-71
2022/10/19 01:38:12;;;;;;;2.43;2.33;;;20.90;72.70;;;;;;5016630;28;43514;-72
2022/10/19 01:40:42;;;;;;;2.30;2.30;;;20.80;72.90;;;;;;5014635;28;43407;-72
2022/10/19 01:43:13;;;;;;;2.53;2.43;;;20.70;73.40;;;;;;5020314;28;43988;-70
2022/10/19 01:45:44;;;;;;;2.20;2.20;;;20.70;73.50;;;;;;5010010;28;44127;-72
2022/10/19 01:48:14;;;;;;;2.07;2.07;;;20.70;73.50;;;;;;5014735;28;43889;-71
2022/10/19 01:50:43;;;;;;;2.10;2.10;;;20.60;73.50;;;;;;5014391;28;43818;-71
2022/10/19 01:53:11;;;;;;;2.40;2.30;;;20.60;73.70;;;;;;5016224;28;43417;-73
2022/10/19 01:55:42;;;;;;;2.73;2.63;;;20.60;74.10;;;;;;5013694;28;43948;-71
2022/10/19 01:58:11;;;;;;;2.30;2.20;;;20.50;73.90;;;;;;5018540;28;43457;-73
2022/10/19 02:00:42;;;;;;;2.30;2.30;;;20.50;73.90;;;;;;5012919;28;43468;-71
2022/10/19 02:03:10;;;;;;;2.33;2.30;;;20.50;73.80;;;;;;5016015;28;43969;-71
2022/10/19 02:05:38;;;;;;;2.10;2.10;;;20.50;74.00;;;;;;5010509;28;43869;-72
2022/10/19 02:08:08;;;;;;;2.37;2.37;;;20.50;74.10;;;;;;5015366;28;43430;-71
2022/10/19 02:10:37;;;;;;;2.40;2.33;;;20.40;74.20;;;;;;5019606;28;43478;-72
2022/10/19 02:13:05;;;;;;;2.20;2.20;;;20.40;74.30;;;;;;5015364;28;43459;-71
2022/10/19 02:15:33;;;;;;;2.60;2.50;;;20.40;74.40;;;;;;5013019;28;45579;-72
2022/10/19 02:18:02;;;;;;;2.53;2.43;;;20.40;74.60;;;;;;5013527;28;43542;-70
2022/10/19 02:20:30;;;;;;;2.50;2.40;;;20.30;74.60;;;;;;5010987;28;43371;-71
2022/10/19 02:22:58;;;;;;;2.50;2.50;;;20.30;75.00;;;;;;5016637;28;43481;-72
2022/10/19 02:25:26;;;;;;;2.83;2.73;;;20.40;74.60;;;;;;5010936;28;43861;-72
2022/10/19 02:27:54;;;;;;;2.63;2.53;;;20.60;74.00;;;;;;5015680;28;43897;-70
2022/10/19 02:30:21;;;;;;;2.53;2.43;;;20.80;73.20;;;;;;5010134;28;43439;-71
2022/10/19 02:32:50;;;;;;;2.70;2.60;;;21.10;72.60;;;;;;5012197;28;43407;-72
2022/10/19 02:35:19;;;;;;;2.33;2.33;;;21.30;71.90;;;;;;5012639;28;43602;-71
2022/10/19 02:37:47;;;;;;;2.83;2.73;;;21.50;71.10;;;;;;5020146;28;43422;-72
2022/10/19 02:40:15;;;;;;;2.40;2.40;;;21.70;70.60;;;;;;5017289;28;43992;-72
2022/10/19 02:42:43;;;;;;;2.60;2.50;;;21.80;70.10;;;;;;5014441;28;43432;-71
2022/10/19 02:45:13;;;;;;;2.57;2.50;;;21.90;69.80;;;;;;5015452;28;46184;-71
2022/10/19 02:47:42;;;;;;;2.37;2.30;;;22.00;69.60;;;;;;5013107;28;43445;-72
2022/10/19 02:50:10;;;;;;;2.37;2.37;;;22.00;69.30;;;;;;5014989;28;43515;-71
2022/10/19 02:52:40;;;;;;;2.63;2.60;;;21.90;69.40;;;;;;5035795;28;43508;-71
2022/10/19 02:55:08;;;;;;;2.50;2.40;;;21.80;69.80;;;;;;5014547;28;45653;-72
2022/10/19 02:57:36;;;;;;;2.80;2.70;;;21.60;70.20;;;;;;5016923;28;43431;-71
2022/10/19 03:00:05;;;;;;;2.80;2.70;;;21.50;70.60;;;;;;5033878;28;44065;-70
2022/10/19 03:02:33;;;;;;;2.53;2.53;;;21.40;70.80;;;;;;5021791;28;43418;-72
2022/10/19 03:05:01;;;;;;;2.50;2.50;;;21.30;71.10;;;;;;5017512;28;46152;-72
2022/10/19 03:07:29;;;;;;;2.57;2.57;;;21.20;71.40;;;;;;5015573;28;43414;-72
2022/10/19 03:09:58;;;;;;;2.80;2.70;;;21.10;72.00;;;;;;5008354;28;43445;-72
2022/10/19 03:12:26;;;;;;;3.03;2.93;;;21.00;72.30;;;;;;5016924;28;44096;-72
2022/10/19 03:14:54;;;;;;;2.50;2.40;;;21.10;72.20;;;;;;5013229;28;43932;-72
2022/10/19 03:17:22;;;;;;;2.77;2.67;;;21.20;72.10;;;;;;5010260;28;43889;-70
2022/10/19 03:19:50;;;;;;;2.83;2.73;;;21.20;71.70;;;;;;5017626;28;43447;-71
2022/10/19 03:22:18;;;;;;;2.93;2.83;;;21.30;71.70;;;;;;5014545;28;43421;-72
2022/10/19 03:24:45;;;;;;;2.93;2.83;;;21.20;71.70;;;;;;5011953;28;45704;-72
2022/10/19 03:27:15;;;;;;;3.00;2.90;;;21.10;71.90;;;;;;5016540;28;43539;-71
2022/10/19 03:29:42;;;;;;;2.70;2.60;;;21.00;72.10;;;;;;5008131;28;43468;-71
2022/10/19 03:32:10;;;;;;;2.60;2.53;;;20.90;72.70;;;;;;5012169;28;43367;-72
2022/10/19 03:34:38;;;;;;;2.73;2.63;;;20.90;72.70;;;;;;5010136;28;43615;-73
2022/10/19 03:37:07;;;;;;;2.80;2.70;;;20.80;72.70;;;;;;5018036;28;43952;-72
2022/10/19 03:39:35;;;;;;;3.00;2.80;;;20.80;72.90;;;;;;5013891;28;44052;-72
2022/10/19 03:42:03;;;;;;;2.60;2.60;;;20.70;73.00;;;;;;5016832;28;44345;-71
2022/10/19 03:44:32;;;;;;;2.60;2.60;;;20.70;73.40;;;;;;5010850;28;45526;-71
2022/10/19 03:47:00;;;;;;;3.03;2.93;;;20.70;73.30;;;;;;5015618;28;43503;-71
2022/10/19 03:49:28;;;;;;;2.57;2.57;;;20.70;73.30;;;;;;5018014;28;43435;-71
2022/10/19 03:51:56;;;;;;;2.90;2.80;;;20.60;73.30;;;;;;5016047;28;43550;-72
2022/10/19 03:54:24;;;;;;;2.90;2.80;;;20.60;73.50;;;;;;5010679;28;43916;-71
2022/10/19 03:56:54;;;;;;;2.50;2.50;;;20.60;74.00;;;;;;5016760;28;44414;-72
2022/10/19 03:59:23;;;;;;;2.90;2.70;;;20.70;73.80;;;;;;5010087;28;43491;-71
2022/10/19 04:01:52;;;;;;;2.50;2.50;;;20.80;73.30;;;;;;5012634;28;43492;-71
2022/10/19 04:04:20;;;;;;;2.60;2.60;;;20.90;72.70;;;;;;5011699;28;43834;-73
2022/10/19 04:06:48;;;;;;;2.67;2.67;;;21.10;72.30;;;;;;5012843;28;43857;-72
2022/10/19 04:09:17;;;;;;;3.10;3.00;;;21.10;72.10;;;;;;5012683;28;43367;-71
2022/10/19 04:11:45;;;;;;;2.93;2.83;;;21.10;72.20;;;;;;5011240;28;43415;-71
2022/10/19 04:14:13;;;;;;;3.10;3.00;;;21.00;72.40;;;;;;5016425;28;43667;-72
2022/10/19 04:17:01;;;;;;;2.80;2.70;;;20.90;72.70;;;;;;5009006;28;43513;-72
2022/10/19 04:19:29;;;;;;;2.80;2.70;;;20.80;73.00;;;;;;5012376;28;43447;-72
2022/10/19 04:21:57;;;;;;;2.87;2.77;;;20.80;73.00;;;;;;5013879;28;43507;-71
2022/10/19 04:24:25;;;;;;;2.50;2.50;;;20.80;73.20;;;;;;5016417;28;43949;-72
2022/10/19 04:26:54;;;;;;;2.90;2.80;;;20.70;73.20;;;;;;5012679;28;43387;-71
2022/10/19 04:29:22;;;;;;;2.83;2.73;;;20.60;73.60;;;;;;5007913;28;43447;-70
2022/10/19 04:31:56;;;;;;;2.83;2.73;;;20.70;73.70;;;;;;5012428;28;43962;-71
2022/10/19 04:34:25;;;;;;;3.03;2.93;;;20.80;73.40;;;;;;5018049;28;44001;-70
2022/10/19 04:36:53;;;;;;;2.70;2.60;;;20.80;72.90;;;;;;5016140;28;43586;-71
2022/10/19 04:39:21;;;;;;;2.93;2.87;;;20.90;72.90;;;;;;5024715;28;43415;-72
2022/10/19 04:41:49;;;;;;;2.60;2.60;;;20.80;73.00;;;;;;5015961;28;43486;-71
2022/10/19 04:44:17;;;;;;;3.07;2.97;;;20.80;73.20;;;;;;5016924;28;43894;-71
2022/10/19 04:46:45;;;;;;;2.70;2.60;;;20.80;73.10;;;;;;5012992;28;43339;-72
2022/10/19 04:49:13;;;;;;;2.67;2.67;;;20.80;73.20;;;;;;5012089;28;43431;-70
2022/10/19 04:51:47;;;;;;;2.97;2.87;;;20.70;73.20;;;;;;5022952;28;43478;-72
2022/10/19 04:54:15;;;;;;;3.10;3.00;;;20.70;73.70;;;;;;5008179;28;44076;-71
2022/10/19 04:56:43;;;;;;;3.13;3.03;;;20.60;73.70;;;;;;5012755;28;43396;-72
2022/10/19 04:59:11;;;;;;;2.77;2.77;;;20.60;73.70;;;;;;5012703;28;43422;-72
2022/10/19 05:01:40;;;;;;;3.00;2.90;;;20.60;73.60;;;;;;5014673;28;44047;-71
2022/10/19 05:04:14;;;;;;;2.80;2.70;;;20.60;73.70;;;;;;5008378;28;43871;-71
2022/10/19 05:06:42;;;;;;;2.90;2.80;;;20.50;74.10;;;;;;5018473;28;43435;-70
2022/10/19 05:09:11;;;;;;;3.20;3.10;;;20.60;74.10;;;;;;5009692;28;43442;-71
2022/10/19 05:11:39;;;;;;;2.60;2.60;;;20.70;73.70;;;;;;5012310;28;43415;-72
2022/10/19 05:14:07;;;;;;;3.10;3.00;;;20.80;73.20;;;;;;5011200;28;43914;-71
2022/10/19 05:16:37;;;;;;;3.40;3.30;;;21.00;72.60;;;;;;5018534;28;43470;-71
2022/10/19 05:19:05;;;;;;;2.93;2.83;;;21.10;72.50;;;;;;5011615;28;43612;-72
2022/10/19 05:21:33;;;;;;;3.07;2.97;;;21.00;72.40;;;;;;5013983;28;43498;-70
2022/10/19 05:24:01;;;;;;;2.90;2.80;;;21.00;72.70;;;;;;5012338;28;43604;-72
2022/10/19 05:26:30;;;;;;;2.80;2.70;;;20.90;72.80;;;;;;5009606;28;44591;-71
2022/10/19 05:29:00;;;;;;;2.90;2.80;;;20.80;73.30;;;;;;5018056;28;43423;-71
2022/10/19 05:31:29;;;;;;;3.13;3.03;;;20.80;73.40;;;;;;5011210;28;43516;-71
2022/10/19 05:33:57;;;;;;;2.77;2.77;;;20.70;73.40;;;;;;5012998;28;43863;-72
2022/10/19 05:36:26;;;;;;;2.77;2.67;;;20.70;73.50;;;;;;5013683;28;43473;-72
2022/10/19 05:38:55;;;;;;;2.80;2.70;;;20.60;73.60;;;;;;5014649;28;44051;-72
2022/10/19 05:41:23;;;;;;;2.67;2.67;;;20.60;74.10;;;;;;5011952;28;43513;-72
2022/10/19 05:43:54;;;;;;;2.77;2.67;;;20.60;74.00;;;;;;5015674;28;46340;-71
2022/10/19 05:46:22;;;;;;;2.90;2.80;;;20.60;74.00;;;;;;5010329;28;43464;-71
2022/10/19 05:48:50;;;;;;;2.70;2.70;;;20.60;73.90;;;;;;5010730;28;43496;-70
2022/10/19 05:51:19;;;;;;;2.90;2.80;;;20.50;74.10;;;;;;5016248;28;43594;-71
2022/10/19 05:53:47;;;;;;;2.90;2.80;;;20.50;74.30;;;;;;5015015;28;43935;-72
2022/10/19 05:56:16;;;;;;;2.77;2.67;;;20.60;74.00;;;;;;5013362;28;44573;-71
2022/10/19 05:58:43;;;;;;;2.80;2.70;;;20.70;73.50;;;;;;5011465;28;43441;-72
2022/10/19 06:01:13;;;;;;;2.70;2.60;;;20.90;73.00;;;;;;5009632;28;43551;-71
2022/10/19 06:03:41;;;;;;;2.57;2.50;;;21.00;72.70;;;;;;5013363;28;43599;-71
2022/10/19 06:06:09;;;;;;;2.80;2.73;;;20.90;72.60;;;;;;5014658;28;44241;-72
2022/10/19 06:08:37;;;;;;;2.70;2.60;;;20.90;72.70;;;;;;5020722;28;43525;-72
2022/10/19 06:11:06;;;;;;;3.03;2.93;;;20.80;72.90;;;;;;5021876;28;43425;-71
2022/10/19 06:13:34;;;;;;;2.73;2.63;;;20.70;73.30;;;;;;5018040;28;44527;-71
2022/10/19 06:16:02;;;;;;;2.33;2.33;;;20.70;73.70;;;;;;5014281;28;44578;-72
2022/10/19 06:18:31;;;;;;;2.70;2.60;;;20.70;73.60;;;;;;5016088;28;43385;-71
2022/10/19 06:21:01;;;;;;;2.63;2.60;;;20.60;73.50;;;;;;5020800;28;43387;-71
2022/10/19 06:23:29;;;;;;;3.00;2.90;;;20.60;73.70;;;;;;5016204;28;43592;-70
2022/10/19 06:25:57;;;;;;;2.80;2.70;;;20.50;74.00;;;;;;5018084;28;43872;-72
2022/10/19 06:28:25;;;;;;;2.80;2.70;;;20.60;74.20;;;;;;5020447;28;43399;-72
2022/10/19 06:30:53;;;;;;;2.57;2.57;;;20.60;74.10;;;;;;5016792;28;43534;-72
2022/10/19 06:33:21;;;;;;;2.47;2.47;;;20.60;74.00;;;;;;5023488;28;43997;-71
2022/10/19 06:35:51;;;;;;;3.20;3.10;;;20.50;73.90;;;;;;5018133;28;43997;-72
2022/10/19 06:38:18;;;;;;;2.77;2.73;;;20.50;74.20;;;;;;5015351;28;43393;-71
2022/10/19 06:40:47;;;;;;;2.70;2.60;;;20.50;74.50;;;;;;5010348;28;43367;-72
2022/10/19 06:43:15;;;;;;;2.93;2.87;;;20.50;74.10;;;;;;5010703;28;43600;-71
2022/10/19 06:45:43;;;;;;;2.90;2.80;;;20.70;73.70;;;;;;5013623;28;44733;-71
2022/10/19 06:48:11;;;;;;;2.47;2.47;;;20.80;73.10;;;;;;5020053;28;43440;-72
2022/10/19 06:50:39;;;;;;;2.60;2.60;;;21.00;72.70;;;;;;5010976;28;43949;-71
2022/10/19 06:53:08;;;;;;;2.83;2.67;;;21.00;72.50;;;;;;5022408;28;43879;-71
2022/10/19 06:55:36;;;;;;;2.60;2.60;;;20.90;72.50;;;;;;5017017;28;43518;-71
2022/10/19 06:58:04;;;;;;;2.80;2.70;;;20.80;72.60;;;;;;5014140;28;43447;-71
2022/10/19 07:00:32;;;;;;;2.40;2.40;;;20.80;73.10;;;;;;5017005;28;43466;-70
2022/10/19 07:03:00;;;;;;;2.90;2.80;;;20.70;73.40;;;;;;5018427;28;45682;-70
2022/10/19 07:05:28;;;;;;;3.00;2.90;;;20.70;73.40;;;;;;5014561;28;43439;-71
2022/10/19 07:07:57;;;;;;;3.10;3.00;;;20.70;73.50;;;;;;5021599;28;43439;-71
2022/10/19 07:10:26;;;;;;;2.57;2.57;;;20.60;73.50;;;;;;5012368;28;43460;-72
2022/10/19 07:12:56;;;;;;;2.97;2.87;;;20.60;73.70;;;;;;5015362;28;44131;-72
2022/10/19 07:15:24;;;;;;;2.90;2.80;;;20.50;74.10;;;;;;5015179;28;43965;-72
2022/10/19 07:17:53;;;;;;;2.53;2.53;;;20.50;74.10;;;;;;5018230;28;43337;-72
2022/10/19 07:20:20;;;;;;;2.73;2.63;;;20.50;73.90;;;;;;5011356;28;43454;-71
2022/10/19 07:22:48;;;;;;;2.90;2.80;;;20.50;73.90;;;;;;5009223;28;43589;-71
2022/10/19 07:25:16;;;;;;;3.10;3.00;;;20.50;74.10;;;;;;5013246;28;43482;-71
2022/10/19 07:27:46;;;;;;;3.13;3.03;;;20.40;74.40;;;;;;5011160;28;44003;-71
2022/10/19 07:30:13;;;;;;;3.03;2.93;;;20.50;74.20;;;;;;5008673;28;43545;-72
2022/10/19 07:32:41;;;;;;;2.90;2.80;;;20.70;73.70;;;;;;5010702;28;43596;-71
2022/10/19 07:35:14;;;;;;;2.87;2.77;;;20.80;73.20;;;;;;5024067;28;44203;-71
2022/10/19 07:37:42;;;;;;;2.97;2.87;;;20.90;72.80;;;;;;5019355;28;43377;-71
2022/10/19 07:40:11;;;;;;;3.03;2.93;;;20.90;72.70;;;;;;5014467;28;43587;-71
2022/10/19 07:42:39;;;;;;;3.10;3.00;;;20.90;72.80;;;;;;5011182;28;43651;-72
2022/10/19 07:45:09;;;;;;;2.90;2.80;;;20.80;72.90;;;;;;5019903;28;44292;-72
2022/10/19 07:47:37;;;;;;;2.60;2.60;;;20.70;73.30;;;;;;5018248;28;43488;-71
2022/10/19 07:50:05;;;;;;;2.97;2.93;;;20.60;73.60;;;;;;5021316;28;43371;-73
2022/10/19 07:52:33;;;;;;;3.37;3.27;;;20.60;73.60;;;;;;5012988;28;43592;-71
2022/10/19 07:55:04;;;;;;;2.93;2.87;;;20.60;73.70;;;;;;5021583;28;43424;-70
2022/10/19 07:57:32;;;;;;;2.90;2.90;;;20.60;73.70;;;;;;5018100;28;43415;-72
2022/10/19 08:00:00;;;;;;;3.00;2.90;;;20.50;74.10;;;;;;5019714;28;44189;-72
2022/10/19 08:02:29;;;;;;;2.93;2.83;;;20.50;74.20;;;;;;5013990;28;43849;-72
2022/10/19 08:05:17;;;;;;;3.03;2.93;;;20.50;74.10;;;;;;5014189;28;43483;-70
2022/10/19 08:07:45;;;;;;;2.90;2.80;;;20.50;74.00;;;;;;5010297;28;43518;-72
2022/10/19 08:10:13;;;;;;;3.03;2.93;;;20.40;74.00;;;;;;5011543;28;43656;-72
2022/10/19 08:12:41;;;;;;;2.80;2.80;;;20.40;74.40;;;;;;5017470;28;43861;-72
2022/10/19 08:15:09;;;;;;;3.20;3.10;;;20.40;74.50;;;;;;5007989;28;43419;-72
2022/10/19 08:17:39;;;;;;;3.10;3.00;;;20.50;74.10;;;;;;5007204;28;43446;-71
2022/10/19 08:20:07;;;;;;;2.90;2.90;;;20.60;73.60;;;;;;5010502;28;43343;-71
2022/10/19 08:22:35;;;;;;;3.20;3.10;;;20.70;73.40;;;;;;5015846;28;43880;-72
2022/10/19 08:25:04;;;;;;;2.87;2.80;;;20.70;73.30;;;;;;5018490;28;43487;-71
2022/10/19 08:27:32;;;;;;;2.87;2.83;;;20.70;73.60;;;;;;5011473;28;43451;-72
2022/10/19 08:30:00;;;;;;;3.13;3.03;;;20.70;73.60;;;;;;5009059;28;43571;-72
2022/10/19 08:32:28;;;;;;;3.20;3.10;;;20.60;73.40;;;;;;5018876;28;43866;-71
2022/10/19 08:34:57;;;;;;;2.67;2.67;;;20.60;73.40;;;;;;5008458;28;43342;-71
2022/10/19 08:37:25;;;;;;;3.50;3.40;;;20.60;73.60;;;;;;5007575;28;43427;-72
2022/10/19 08:40:16;;;;;;;3.30;3.20;;;20.50;74.00;;;;;;5014684;28;43781;-70
2022/10/19 08:42:49;;;;;;;3.00;3.00;;;20.50;74.00;;;;;;5016444;28;43915;-71
2022/10/19 08:45:26;;;;;;;3.10;3.00;;;20.50;74.00;;;;;;5009623;28;43257;-72
2022/10/19 08:48:07;;;;;;;3.00;2.90;;;20.50;74.00;;;;;;5008117;28;43931;-71
2022/10/19 08:50:37;;;;;;;3.23;3.13;;;20.40;74.10;;;;;;5008785;28;43871;-72
2022/10/19 08:53:07;;;;;;;3.20;3.10;;;20.40;74.60;;;;;;5012691;28;43854;-72
2022/10/19 08:55:43;;;;;;;3.20;3.10;;;20.40;74.30;;;;;;5010838;28;43522;-71
2022/10/19 08:58:20;;;;;;;3.47;3.37;;;20.60;74.00;;;;;;5009142;28;43391;-71
2022/10/19 09:00:50;;;;;;;3.27;3.17;;;20.70;73.30;;;;;;5007111;28;43448;-72
2022/10/19 09:03:22;;;;;;;2.80;2.80;;;20.80;72.90;;;;;;5016736;28;43871;-70
2022/10/19 09:06:19;;;;;;;2.60;2.60;;;20.90;72.90;;;;;;5022720;28;44329;-71
2022/10/19 09:08:46;;;;;;;3.00;2.90;;;20.80;72.90;;;;;;5021241;28;44142;-71
2022/10/19 09:11:14;;;;;;;3.10;3.00;;;20.70;73.00;;;;;;5016020;28;43438;-72
2022/10/19 09:13:44;;;;;;;2.90;2.80;;;20.60;73.50;;;;;;5015304;28;44106;-71
2022/10/19 09:16:32;;;;;;;3.10;3.00;;;20.60;73.80;;;;;;5015498;28;43408;-72
2022/10/19 09:19:00;;;;;;;2.97;2.90;;;20.60;73.80;;;;;;5014392;28;43449;-71
2022/10/19 09:21:32;;;;;;;2.80;2.70;;;20.50;73.70;;;;;;5011875;28;43429;-70
2022/10/19 09:24:21;;;;;;;3.20;3.10;;;20.50;73.80;;;;;;5005369;28;45908;-71
2022/10/19 09:26:51;;;;;;;2.80;2.80;;;20.40;74.20;;;;;;5012054;28;43448;-73
2022/10/19 09:29:21;;;;;;;2.60;2.50;;;20.50;74.30;;;;;;5011391;28;43463;-71
2022/10/19 09:31:49;;;;;;;3.00;3.00;;;20.60;74.00;;;;;;5012785;28;43435;-72
2022/10/19 09:34:21;;;;;;;2.83;2.80;;;20.60;73.60;;;;;;5012313;28;43882;-72
2022/10/19 09:36:52;;;;;;;2.67;2.67;;;20.60;73.50;;;;;;5012319;28;43431;-71
2022/10/19 09:39:21;;;;;;;2.80;2.70;;;20.60;73.70;;;;;;5008096;28;43381;-71
2022/10/19 09:41:54;;;;;;;3.10;3.00;;;20.60;73.70;;;;;;5019231;28;43487;-72
2022/10/19 09:44:23;;;;;;;2.80;2.80;;;20.60;73.70;;;;;;5027147;28;45982;-71
2022/10/19 09:46:52;;;;;;;2.87;2.87;;;20.60;74.40;;;;;;5017784;28;43429;-72
2022/10/19 09:49:20;;;;;;;2.67;2.67;;;20.50;73.70;;;;;;5010282;28;43998;-71
2022/10/19 09:51:51;;;;;;;3.00;2.90;;;20.50;74.20;;;;;;5017432;28;43451;-72
2022/10/19 09:54:26;;;;;;;2.87;2.87;;;20.50;74.20;;;;;;5014222;28;43864;-71
2022/10/19 09:56:55;;;;;;;3.10;3.00;;;20.50;74.10;;;;;;5013295;28;43935;-72
2022/10/19 09:59:24;;;;;;;2.53;2.53;;;20.40;74.00;;;;;;5011907;28;43791;-71
2022/10/19 10:02:13;;;;;;;2.90;2.90;;;20.40;74.10;;;;;;5019405;28;43446;-71
2022/10/19 10:04:41;;;;;;;2.80;2.80;;;20.40;74.60;;;;;;5025256;28;43904;-72
2022/10/19 10:07:14;;;;;;;2.90;2.83;;;20.40;74.50;;;;;;5021317;28;44265;-72
2022/10/19 10:09:42;;;;;;;2.90;2.80;;;20.50;74.10;;;;;;5019516;28;43417;-72
2022/10/19 10:12:12;;;;;;;2.73;2.73;;;20.70;73.60;;;;;;5009508;28;43599;-71
2022/10/19 10:14:40;;;;;;;2.60;2.60;;;20.80;73.00;;;;;;5013783;28;43788;-72
2022/10/19 10:17:13;;;;;;;2.50;2.50;;;20.80;72.80;;;;;;5019605;28;43538;-71
2022/10/19 10:19:50;;;;;;;2.33;2.33;;;20.80;72.90;;;;;;5019907;28;43465;-72
2022/10/19 10:22:26;;;;;;;2.60;2.60;;;20.70;73.00;;;;;;5014787;28;43344;-71
2022/10/19 10:24:55;;;;;;;2.60;2.50;;;20.60;73.30;;;;;;5017154;28;43938;-72
2022/10/19 10:27:30;;;;;;;2.50;2.50;;;20.60;73.90;;;;;;5011889;28;43511;-72
2022/10/19 10:29:59;;;;;;;2.40;2.40;;;20.60;74.60;;;;;;5009306;28;43458;-72
2022/10/19 10:32:27;;;;;;;2.50;2.50;;;20.60;73.90;;;;;;5020864;28;43548;-72
2022/10/19 10:34:57;;;;;;;2.20;2.20;;;20.50;73.80;;;;;;5013658;28;43842;-71
2022/10/19 10:37:34;;;;;;;2.67;2.67;;;20.50;74.00;;;;;;5020412;28;43379;-71
2022/10/19 10:40:02;;;;;;;2.43;2.43;;;20.40;74.40;;;;;;5014549;28;43364;-73
2022/10/19 10:42:34;;;;;;;2.57;2.53;;;20.40;74.30;;;;;;5011374;28;43437;-72
2022/10/19 10:45:02;;;;;;;2.57;2.57;;;20.40;74.10;;;;;;5013411;28;43857;-72
2022/10/19 10:47:30;;;;;;;2.53;2.53;;;20.40;74.20;;;;;;5019883;28;43999;-71
2022/10/19 10:50:01;;;;;;;2.77;2.77;;;20.40;74.30;;;;;;5011148;28;43514;-71
2022/10/19 10:52:30;;;;;;;2.60;2.60;;;20.40;74.70;;;;;;5013678;28;43607;-71
2022/10/19 10:55:00;;;;;;;3.00;2.93;;;20.40;74.40;;;;;;5025675;28;43616;-71
2022/10/19 10:57:30;;;;;;;2.53;2.53;;;20.60;74.10;;;;;;5011119;28;44037;-72
2022/10/19 11:00:01;;;;;;;2.43;2.43;;;20.70;73.40;;;;;;5011502;28;43458;-73
2022/10/19 11:02:35;;;;;;;2.47;2.47;;;20.80;73.00;;;;;;5008853;28;43894;-71
2022/10/19 11:05:06;;;;;;;2.57;2.57;;;20.90;73.00;;;;;;5013823;28;43921;-71
2022/10/19 11:07:35;;;;;;;2.30;2.30;;;20.80;72.90;;;;;;5009440;28;44277;-71
2022/10/19 11:10:08;;;;;;;2.70;2.70;;;20.70;73.10;;;;;;5020781;28;43487;-70
2022/10/19 11:12:38;;;;;;;2.40;2.40;;;20.60;73.40;;;;;;5023248;28;43390;-72
2022/10/19 11:15:12;;;;;;;2.40;2.40;;;20.60;73.90;;;;;;5017324;28;44081;-71
2022/10/19 11:17:43;;;;;;;2.33;2.33;;;20.60;73.90;;;;;;5009612;28;43979;-70
2022/10/19 11:20:14;;;;;;;2.67;2.60;;;20.50;73.70;;;;;;5010958;28;43404;-71
2022/10/19 11:22:46;;;;;;;2.53;2.53;;;20.50;73.80;;;;;;5021692;28;43487;-72
2022/10/19 11:25:23;;;;;;;2.37;2.37;;;20.40;73.90;;;;;;5012787;28;45701;-71
2022/10/19 11:27:56;;;;;;;2.83;2.73;;;20.40;74.30;;;;;;5016500;28;43376;-72
2022/10/19 11:30:24;;;;;;;2.60;2.60;;;20.40;74.30;;;;;;5015147;28;43925;-71
2022/10/19 11:32:57;;;;;;;2.30;2.30;;;20.40;74.20;;;;;;5014730;28;43364;-72
2022/10/19 11:35:35;;;;;;;2.50;2.50;;;20.40;74.20;;;;;;5014252;28;43984;-71
2022/10/19 11:38:12;;;;;;;2.20;2.20;;;20.40;74.60;;;;;;5016706;28;43493;-72
2022/10/19 11:40:52;;;;;;;3.23;2.80;;;20.30;74.70;;;;;;5016440;28;43476;-71
2022/10/19 11:43:42;;;;;;;4.70;3.10;;;20.40;74.30;;;;;;5011097;28;43398;-72
2022/10/19 11:46:13;;;;;;;3.53;3.23;;;20.60;73.70;;;;;;5013899;28;43932;-71
2022/10/19 11:48:53;;;;;;;5.67;3.50;;;20.80;73.20;;;;;;5011515;28;44984;-70
2022/10/19 11:51:25;;;;;;;5.57;3.60;;;20.90;73.00;;;;;;5013644;28;43479;-70
2022/10/19 11:54:00;;;;;;;5.07;3.60;;;20.80;72.90;;;;;;5008736;28;43461;-70
2022/10/19 11:56:30;;;;;;;3.93;3.63;;;20.70;72.90;;;;;;5012173;28;43904;-70
2022/10/19 11:59:23;;;;;;;7.03;4.27;;;20.60;73.20;;;;;;5010699;28;44365;-72
2022/10/19 12:01:54;;;;;;;4.53;4.00;;;20.60;73.80;;;;;;5015847;28;43458;-72
2022/10/19 12:04:45;;;;;;;8.73;4.33;;;20.50;73.90;;;;;;5010296;28;43945;-71
2022/10/19 12:07:32;;;;;;;4.23;3.83;;;20.50;74.00;;;;;;5010322;28;43834;-72
2022/10/19 12:10:06;;;;;;;10.03;5.03;;;20.50;74.10;;;;;;5015011;28;43395;-71
2022/10/19 12:12:35;;;;;;;11.73;5.57;;;20.40;74.20;;;;;;5018255;28;43424;-71
2022/10/19 12:15:14;;;;;;;8.10;4.67;;;20.40;74.60;;;;;;5016434;28;43459;-72
2022/10/19 12:17:43;;;;;;;7.53;4.77;;;20.40;74.60;;;;;;5007651;28;43870;-72
2022/10/19 12:20:17;;;;;;;8.23;5.40;;;20.40;74.30;;;;;;5008065;28;44387;-71
2022/10/19 12:22:46;;;;;;;6.97;4.90;;;20.40;74.30;;;;;;5009937;28;43333;-71
2022/10/19 12:25:16;;;;;;;9.20;5.30;;;20.40;74.40;;;;;;5009408;28;43961;-71
2022/10/19 12:27:46;;;;;;;8.47;5.40;;;20.30;74.80;;;;;;5009957;28;43825;-72
2022/10/19 12:30:15;;;;;;;7.63;4.83;;;20.30;74.70;;;;;;5010040;28;43901;-71
2022/10/19 12:32:48;;;;;;;6.47;4.90;;;20.50;74.50;;;;;;5006264;28;43478;-72
2022/10/19 12:35:31;;;;;;;6.50;4.93;;;20.60;73.90;;;;;;5013134;28;43701;-71
2022/10/19 12:38:01;;;;;;;6.73;4.80;;;20.80;73.30;;;;;;5010750;28;45973;-72
2022/10/19 12:40:34;;;;;;;5.23;4.63;;;20.80;73.00;;;;;;5010601;28;43459;-71
2022/10/19 12:43:03;;;;;;;6.10;4.57;;;20.80;73.20;;;;;;5015526;28;43446;-72
2022/10/19 12:45:31;;;;;;;4.70;4.30;;;20.70;73.40;;;;;;5013232;28;43395;-71
2022/10/19 12:48:17;;;;;;;5.37;4.50;;;20.60;73.60;;;;;;5010323;28;43611;-72
2022/10/19 12:51:02;;;;;;;5.00;4.40;;;20.60;74.00;;;;;;5013668;28;43461;-71
2022/10/19 12:53:34;;;;;;;4.90;4.40;;;20.50;73.90;;;;;;5024320;28;43387;-70
2022/10/19 12:56:05;;;;;;;4.73;4.33;;;20.50;74.10;;;;;;5014492;28;43363;-71
2022/10/19 12:58:36;;;;;;;5.17;4.47;;;20.50;74.30;;;;;;5017289;28;43831;-70
2022/10/19 13:01:05;;;;;;;4.13;3.73;;;20.40;74.40;;;;;;5021261;28;43487;-71
2022/10/19 13:03:35;;;;;;;5.13;4.10;;;20.40;74.60;;;;;;5014642;28;43459;-72
2022/10/19 13:06:07;;;;;;;4.47;4.03;;;20.40;74.60;;;;;;5015651;28;44237;-71